Terminal Aerodrome Forecast
Issued by NWS Pocatello, ID

Home | Current Version | Previous Version | Text Only | Print | Product List | Glossary On
Versions: 1 2 3 4 5 6 7 8 9 10 11 12 13 14 15 16 17 18 19 20 21 22 23 24 25 26 27 28 29 30
002
FTUS45 KPIH 090232 AAB
TAFPIH
TAF AMD
KPIH 090232Z 0903/0924 01006KT 6SM BR VCSH SCT015 OVC040
     FM091000 VRB05KT 4SM -SN BR BKN008 OVC015
     FM091600 18015KT 6SM BR VCSH SCT015 OVC040
     FM092000 19010KT 2SM -SN BR OVC008=

USA.gov is the U.S. government's official web portal to all federal, state and local government web resources and services.